EmailTwitter


Observations de surface / Québec / LFRC

Régions: Québec | Canada | États-Unis | Europe | France | UK | Ailleurs
Station
Affichage
Infos & localisation pour LFRC | Aide pour décoder les METARs

Observations prises le 2017-09-19 à 13H00 UTC à CHERBOURG/MAUPER, FR (LFRC)

Température: 15.0 Celsius

Point de rosée: 8.0 Celsius

Humidité relative: 63%

Vents: Ouest à 13 km/h ou 7 noeuds.

Pression au niveau moyen de la mer: 102.30 kilopascals.

Observation METAR:

LFRC 191300Z AUTO 27007KT 240V300 CAVOK 15/08 Q1023 NOSIG=